sensor_id;sensor_type;location;lat;lon;timestamp;temperature;humidity
3919;DHT22;1974;48.670;8.994;2023-08-12T00:00:01;20.30;99.90
3919;DHT22;1974;48.670;8.994;2023-08-12T00:02:34;20.30;99.90
3919;DHT22;1974;48.670;8.994;2023-08-12T00:05:01;20.40;99.90
3919;DHT22;1974;48.670;8.994;2023-08-12T00:07:29;20.30;99.90
3919;DHT22;1974;48.670;8.994;2023-08-12T00:09:56;20.30;99.90
3919;DHT22;1974;48.670;8.994;2023-08-12T00:12:22;20.30;99.90
3919;DHT22;1974;48.670;8.994;2023-08-12T00:14:50;20.30;99.90
3919;DHT22;1974;48.670;8.994;2023-08-12T00:17:17;20.20;99.90
3919;DHT22;1974;48.670;8.994;2023-08-12T00:19:44;20.20;99.90
3919;DHT22;1974;48.670;8.994;2023-08-12T00:22:11;20.20;99.90
3919;DHT22;1974;48.670;8.994;2023-08-12T00:24:38;20.20;99.90
3919;DHT22;1974;48.670;8.994;2023-08-12T00:27:05;20.20;99.90
3919;DHT22;1974;48.670;8.994;2023-08-12T00:29:34;20.20;99.90
3919;DHT22;1974;48.670;8.994;2023-08-12T00:32:03;20.20;99.90
3919;DHT22;1974;48.670;8.994;2023-08-12T00:34:30;20.20;99.90
3919;DHT22;1974;48.670;8.994;2023-08-12T00:36:56;20.20;99.90
3919;DHT22;1974;48.670;8.994;2023-08-12T00:39:23;20.20;99.90
3919;DHT22;1974;48.670;8.994;2023-08-12T00:41:50;20.10;99.90
3919;DHT22;1974;48.670;8.994;2023-08-12T00:44:17;20.20;99.90
3919;DHT22;1974;48.670;8.994;2023-08-12T00:46:44;20.10;99.90
3919;DHT22;1974;48.670;8.994;2023-08-12T00:49:12;20.10;99.90
3919;DHT22;1974;48.670;8.994;2023-08-12T00:51:40;20.10;99.90
3919;DHT22;1974;48.670;8.994;2023-08-12T00:54:08;20.10;99.90
3919;DHT22;1974;48.670;8.994;2023-08-12T00:56:38;20.10;99.90
3919;DHT22;1974;48.670;8.994;2023-08-12T00:59:07;20.10;99.90
3919;DHT22;1974;48.670;8.994;2023-08-12T01:01:34;20.00;99.90
3919;DHT22;1974;48.670;8.994;2023-08-12T01:04:01;20.00;99.90
3919;DHT22;1974;48.670;8.994;2023-08-12T01:06:30;20.00;99.90
3919;DHT22;1974;48.670;8.994;2023-08-12T01:08:57;20.00;99.90
3919;DHT22;1974;48.670;8.994;2023-08-12T01:11:28;20.00;99.90
3919;DHT22;1974;48.670;8.994;2023-08-12T01:14:04;20.00;99.90
3919;DHT22;1974;48.670;8.994;2023-08-12T01:16:34;20.00;99.90
3919;DHT22;1974;48.670;8.994;2023-08-12T01:19:04;20.00;99.90
3919;DHT22;1974;48.670;8.994;2023-08-12T01:21:37;20.00;99.90
3919;DHT22;1974;48.670;8.994;2023-08-12T01:24:09;20.00;99.90
3919;DHT22;1974;48.670;8.994;2023-08-12T01:26:34;20.00;99.90
3919;DHT22;1974;48.670;8.994;2023-08-12T01:29:01;20.00;99.90
3919;DHT22;1974;48.670;8.994;2023-08-12T01:31:32;20.10;99.90
3919;DHT22;1974;48.670;8.994;2023-08-12T01:34:06;20.00;99.90
3919;DHT22;1974;48.670;8.994;2023-08-12T01:36:36;20.00;99.90
3919;DHT22;1974;48.670;8.994;2023-08-12T01:39:05;20.00;99.90
3919;DHT22;1974;48.670;8.994;2023-08-12T01:41:34;20.00;99.90
3919;DHT22;1974;48.670;8.994;2023-08-12T01:44:02;20.00;99.90
3919;DHT22;1974;48.670;8.994;2023-08-12T01:46:29;20.00;99.90
3919;DHT22;1974;48.670;8.994;2023-08-12T01:48:55;20.10;99.90
3919;DHT22;1974;48.670;8.994;2023-08-12T01:51:22;20.10;99.90
3919;DHT22;1974;48.670;8.994;2023-08-12T01:53:49;20.00;99.90
3919;DHT22;1974;48.670;8.994;2023-08-12T01:56:16;20.10;99.90
3919;DHT22;1974;48.670;8.994;2023-08-12T01:58:44;20.10;99.90
3919;DHT22;1974;48.670;8.994;2023-08-12T02:01:10;20.20;99.90
3919;DHT22;1974;48.670;8.994;2023-08-12T02:03:37;20.10;99.90
3919;DHT22;1974;48.670;8.994;2023-08-12T02:06:04;20.10;99.90
3919;DHT22;1974;48.670;8.994;2023-08-12T02:08:31;20.10;99.90
3919;DHT22;1974;48.670;8.994;2023-08-12T02:10:57;20.10;99.90
3919;DHT22;1974;48.670;8.994;2023-08-12T02:13:24;20.10;99.90
3919;DHT22;1974;48.670;8.994;2023-08-12T02:15:52;20.10;99.90
3919;DHT22;1974;48.670;8.994;2023-08-12T02:18:19;20.10;99.90
3919;DHT22;1974;48.670;8.994;2023-08-12T02:20:47;20.10;99.90
3919;DHT22;1974;48.670;8.994;2023-08-12T02:23:13;20.20;99.90
3919;DHT22;1974;48.670;8.994;2023-08-12T02:25:40;20.20;99.90
3919;DHT22;1974;48.670;8.994;2023-08-12T02:28:07;20.20;99.90
3919;DHT22;1974;48.670;8.994;2023-08-12T02:30:33;20.20;99.90
3919;DHT22;1974;48.670;8.994;2023-08-12T02:33:02;20.10;99.90
3919;DHT22;1974;48.670;8.994;2023-08-12T02:35:29;20.10;99.90
3919;DHT22;1974;48.670;8.994;2023-08-12T02:37:55;20.10;99.90
3919;DHT22;1974;48.670;8.994;2023-08-12T02:40:22;20.10;99.90
3919;DHT22;1974;48.670;8.994;2023-08-12T02:42:49;20.10;99.90
3919;DHT22;1974;48.670;8.994;2023-08-12T02:45:16;20.10;99.90
3919;DHT22;1974;48.670;8.994;2023-08-12T02:47:42;20.10;99.90
3919;DHT22;1974;48.670;8.994;2023-08-12T02:50:10;20.20;99.90
3919;DHT22;1974;48.670;8.994;2023-08-12T02:52:37;20.10;99.90
3919;DHT22;1974;48.670;8.994;2023-08-12T02:55:04;19.90;99.90
3919;DHT22;1974;48.670;8.994;2023-08-12T02:57:31;20.10;99.90
3919;DHT22;1974;48.670;8.994;2023-08-12T02:59:58;20.00;99.90
3919;DHT22;1974;48.670;8.994;2023-08-12T03:02:25;20.00;99.90
3919;DHT22;1974;48.670;8.994;2023-08-12T03:04:51;20.10;99.90
3919;DHT22;1974;48.670;8.994;2023-08-12T03:07:21;20.00;99.90
3919;DHT22;1974;48.670;8.994;2023-08-12T03:09:47;20.00;99.90
3919;DHT22;1974;48.670;8.994;2023-08-12T03:12:14;20.00;99.90
3919;DHT22;1974;48.670;8.994;2023-08-12T03:14:41;20.10;99.90
3919;DHT22;1974;48.670;8.994;2023-08-12T03:17:07;20.00;99.90
3919;DHT22;1974;48.670;8.994;2023-08-12T03:19:34;20.10;99.90
3919;DHT22;1974;48.670;8.994;2023-08-12T03:22:01;20.00;99.90
3919;DHT22;1974;48.670;8.994;2023-08-12T03:24:29;20.00;99.90
3919;DHT22;1974;48.670;8.994;2023-08-12T03:26:56;20.10;99.90
3919;DHT22;1974;48.670;8.994;2023-08-12T03:29:23;20.00;99.90
3919;DHT22;1974;48.670;8.994;2023-08-12T03:31:50;20.00;99.90
3919;DHT22;1974;48.670;8.994;2023-08-12T03:34:16;20.10;99.90
3919;DHT22;1974;48.670;8.994;2023-08-12T03:36:43;20.00;99.90
3919;DHT22;1974;48.670;8.994;2023-08-12T03:39:11;20.10;99.90
3919;DHT22;1974;48.670;8.994;2023-08-12T03:41:39;20.10;99.90
3919;DHT22;1974;48.670;8.994;2023-08-12T03:44:06;20.10;99.90
3919;DHT22;1974;48.670;8.994;2023-08-12T03:46:33;20.20;99.90
3919;DHT22;1974;48.670;8.994;2023-08-12T03:49:00;20.20;99.90
3919;DHT22;1974;48.670;8.994;2023-08-12T03:51:26;20.10;99.90
3919;DHT22;1974;48.670;8.994;2023-08-12T03:53:53;20.20;99.90
3919;DHT22;1974;48.670;8.994;2023-08-12T03:56:20;20.10;99.90
3919;DHT22;1974;48.670;8.994;2023-08-12T03:58:48;20.20;99.90
3919;DHT22;1974;48.670;8.994;2023-08-12T04:01:15;20.20;99.90
3919;DHT22;1974;48.670;8.994;2023-08-12T04:03:41;20.20;99.90
3919;DHT22;1974;48.670;8.994;2023-08-12T04:06:08;20.30;99.90
3919;DHT22;1974;48.670;8.994;2023-08-12T04:08:35;20.30;99.90
3919;DHT22;1974;48.670;8.994;2023-08-12T04:11:02;20.30;99.90
3919;DHT22;1974;48.670;8.994;2023-08-12T04:13:28;20.30;99.90
3919;DHT22;1974;48.670;8.994;2023-08-12T04:15:57;20.30;99.90
3919;DHT22;1974;48.670;8.994;2023-08-12T04:18:23;20.30;99.90
3919;DHT22;1974;48.670;8.994;2023-08-12T04:20:51;20.30;99.90
3919;DHT22;1974;48.670;8.994;2023-08-12T04:23:19;20.30;99.90
3919;DHT22;1974;48.670;8.994;2023-08-12T04:25:46;20.30;99.90
3919;DHT22;1974;48.670;8.994;2023-08-12T04:28:13;20.30;99.90
3919;DHT22;1974;48.670;8.994;2023-08-12T04:30:41;20.30;99.90
3919;DHT22;1974;48.670;8.994;2023-08-12T04:33:09;20.30;99.90
3919;DHT22;1974;48.670;8.994;2023-08-12T04:35:36;20.30;99.90
3919;DHT22;1974;48.670;8.994;2023-08-12T04:38:03;20.30;99.90
3919;DHT22;1974;48.670;8.994;2023-08-12T04:40:30;20.20;99.90
3919;DHT22;1974;48.670;8.994;2023-08-12T04:42:58;20.30;99.90
3919;DHT22;1974;48.670;8.994;2023-08-12T04:45:25;20.20;99.90
3919;DHT22;1974;48.670;8.994;2023-08-12T04:47:52;20.20;99.90
3919;DHT22;1974;48.670;8.994;2023-08-12T04:50:20;20.10;99.90
3919;DHT22;1974;48.670;8.994;2023-08-12T04:52:47;20.10;99.90
3919;DHT22;1974;48.670;8.994;2023-08-12T04:55:14;20.10;99.90
3919;DHT22;1974;48.670;8.994;2023-08-12T04:57:42;20.10;99.90
3919;DHT22;1974;48.670;8.994;2023-08-12T05:00:09;20.10;99.90
3919;DHT22;1974;48.670;8.994;2023-08-12T05:02:36;20.00;99.90
3919;DHT22;1974;48.670;8.994;2023-08-12T05:05:04;20.10;99.90
3919;DHT22;1974;48.670;8.994;2023-08-12T05:07:32;20.10;99.90
3919;DHT22;1974;48.670;8.994;2023-08-12T05:09:59;20.10;99.90
3919;DHT22;1974;48.670;8.994;2023-08-12T05:12:26;20.10;99.90
3919;DHT22;1974;48.670;8.994;2023-08-12T05:14:52;20.00;99.90
3919;DHT22;1974;48.670;8.994;2023-08-12T05:17:19;19.90;99.90
3919;DHT22;1974;48.670;8.994;2023-08-12T05:19:46;20.10;99.90
3919;DHT22;1974;48.670;8.994;2023-08-12T05:22:13;20.10;99.90
3919;DHT22;1974;48.670;8.994;2023-08-12T05:24:41;20.10;99.90
3919;DHT22;1974;48.670;8.994;2023-08-12T05:27:08;20.00;99.90
3919;DHT22;1974;48.670;8.994;2023-08-12T05:29:34;20.10;99.90
3919;DHT22;1974;48.670;8.994;2023-08-12T05:32:01;20.10;99.90
3919;DHT22;1974;48.670;8.994;2023-08-12T05:34:28;20.30;99.90
3919;DHT22;1974;48.670;8.994;2023-08-12T05:36:55;20.20;99.90
3919;DHT22;1974;48.670;8.994;2023-08-12T05:39:21;20.30;99.90
3919;DHT22;1974;48.670;8.994;2023-08-12T05:41:49;20.30;99.90
3919;DHT22;1974;48.670;8.994;2023-08-12T05:44:17;20.40;99.90
3919;DHT22;1974;48.670;8.994;2023-08-12T05:46:44;20.40;99.90
3919;DHT22;1974;48.670;8.994;2023-08-12T05:49:12;20.40;99.90
3919;DHT22;1974;48.670;8.994;2023-08-12T05:51:39;20.50;99.90
3919;DHT22;1974;48.670;8.994;2023-08-12T05:54:07;20.50;99.90
3919;DHT22;1974;48.670;8.994;2023-08-12T05:56:33;20.50;99.90
3919;DHT22;1974;48.670;8.994;2023-08-12T05:59:01;20.60;99.90
3919;DHT22;1974;48.670;8.994;2023-08-12T06:01:28;20.70;99.90
3919;DHT22;1974;48.670;8.994;2023-08-12T06:03:58;20.60;99.90
3919;DHT22;1974;48.670;8.994;2023-08-12T06:06:25;20.70;99.90
3919;DHT22;1974;48.670;8.994;2023-08-12T06:08:51;20.70;99.90
3919;DHT22;1974;48.670;8.994;2023-08-12T06:11:18;20.70;99.90
3919;DHT22;1974;48.670;8.994;2023-08-12T06:13:45;20.70;99.90
3919;DHT22;1974;48.670;8.994;2023-08-12T06:16:13;20.80;99.90
3919;DHT22;1974;48.670;8.994;2023-08-12T06:18:40;20.80;99.90
3919;DHT22;1974;48.670;8.994;2023-08-12T06:21:06;20.90;99.90
3919;DHT22;1974;48.670;8.994;2023-08-12T06:23:33;21.00;99.90
3919;DHT22;1974;48.670;8.994;2023-08-12T06:26:00;21.10;99.90
3919;DHT22;1974;48.670;8.994;2023-08-12T06:28:27;21.10;99.90
3919;DHT22;1974;48.670;8.994;2023-08-12T06:30:54;21.20;99.90
3919;DHT22;1974;48.670;8.994;2023-08-12T06:33:22;21.30;99.90
3919;DHT22;1974;48.670;8.994;2023-08-12T06:35:50;21.50;99.90
3919;DHT22;1974;48.670;8.994;2023-08-12T06:38:17;21.70;99.90
3919;DHT22;1974;48.670;8.994;2023-08-12T06:40:44;22.00;99.90
3919;DHT22;1974;48.670;8.994;2023-08-12T06:43:10;22.40;99.90
3919;DHT22;1974;48.670;8.994;2023-08-12T06:45:37;22.70;99.90
3919;DHT22;1974;48.670;8.994;2023-08-12T06:48:04;22.90;99.90
3919;DHT22;1974;48.670;8.994;2023-08-12T06:50:32;23.20;99.90
3919;DHT22;1974;48.670;8.994;2023-08-12T06:52:59;23.30;99.90
3919;DHT22;1974;48.670;8.994;2023-08-12T06:55:26;23.20;99.90
3919;DHT22;1974;48.670;8.994;2023-08-12T06:57:53;23.30;99.90
3919;DHT22;1974;48.670;8.994;2023-08-12T07:00:20;23.40;99.90
3919;DHT22;1974;48.670;8.994;2023-08-12T07:02:46;23.50;99.90
3919;DHT22;1974;48.670;8.994;2023-08-12T07:05:13;23.60;99.90
3919;DHT22;1974;48.670;8.994;2023-08-12T07:07:41;23.50;99.90
3919;DHT22;1974;48.670;8.994;2023-08-12T07:10:09;23.60;99.90
3919;DHT22;1974;48.670;8.994;2023-08-12T07:12:35;23.70;99.90
3919;DHT22;1974;48.670;8.994;2023-08-12T07:15:02;23.90;99.90
3919;DHT22;1974;48.670;8.994;2023-08-12T07:17:29;24.00;99.90
3919;DHT22;1974;48.670;8.994;2023-08-12T07:19:56;24.10;99.90
3919;DHT22;1974;48.670;8.994;2023-08-12T07:22:23;24.30;99.90
3919;DHT22;1974;48.670;8.994;2023-08-12T07:24:51;24.30;99.90
3919;DHT22;1974;48.670;8.994;2023-08-12T07:27:18;24.50;99.90
3919;DHT22;1974;48.670;8.994;2023-08-12T07:29:45;24.70;99.90
3919;DHT22;1974;48.670;8.994;2023-08-12T07:32:12;24.80;99.90
3919;DHT22;1974;48.670;8.994;2023-08-12T07:34:39;25.00;99.90
3919;DHT22;1974;48.670;8.994;2023-08-12T07:37:06;25.20;99.90
3919;DHT22;1974;48.670;8.994;2023-08-12T07:39:32;25.30;99.90
3919;DHT22;1974;48.670;8.994;2023-08-12T07:41:59;25.20;99.90
3919;DHT22;1974;48.670;8.994;2023-08-12T07:44:26;25.20;99.90
3919;DHT22;1974;48.670;8.994;2023-08-12T07:46:53;25.40;99.90
3919;DHT22;1974;48.670;8.994;2023-08-12T07:49:21;25.70;99.90
3919;DHT22;1974;48.670;8.994;2023-08-12T07:51:48;25.90;99.90
3919;DHT22;1974;48.670;8.994;2023-08-12T07:54:15;26.00;99.90
3919;DHT22;1974;48.670;8.994;2023-08-12T07:56:41;26.00;99.90
3919;DHT22;1974;48.670;8.994;2023-08-12T07:59:09;26.20;99.90
3919;DHT22;1974;48.670;8.994;2023-08-12T08:01:36;26.50;99.90
3919;DHT22;1974;48.670;8.994;2023-08-12T08:04:04;26.70;99.90
3919;DHT22;1974;48.670;8.994;2023-08-12T08:06:31;26.80;99.90
3919;DHT22;1974;48.670;8.994;2023-08-12T08:08:57;26.90;99.90
3919;DHT22;1974;48.670;8.994;2023-08-12T08:11:26;26.90;99.90
3919;DHT22;1974;48.670;8.994;2023-08-12T08:13:53;26.80;99.90
3919;DHT22;1974;48.670;8.994;2023-08-12T08:16:21;26.70;99.90
3919;DHT22;1974;48.670;8.994;2023-08-12T08:18:48;26.70;99.90
3919;DHT22;1974;48.670;8.994;2023-08-12T08:21:15;26.70;99.90
3919;DHT22;1974;48.670;8.994;2023-08-12T08:23:42;26.80;99.90
3919;DHT22;1974;48.670;8.994;2023-08-12T08:26:09;27.10;99.90
3919;DHT22;1974;48.670;8.994;2023-08-12T08:28:37;27.10;99.90
3919;DHT22;1974;48.670;8.994;2023-08-12T08:31:04;27.50;99.90
3919;DHT22;1974;48.670;8.994;2023-08-12T08:33:32;27.90;99.90
3919;DHT22;1974;48.670;8.994;2023-08-12T08:35:59;28.30;99.90
3919;DHT22;1974;48.670;8.994;2023-08-12T08:38:25;28.40;99.90
3919;DHT22;1974;48.670;8.994;2023-08-12T08:40:52;28.40;99.90
3919;DHT22;1974;48.670;8.994;2023-08-12T08:43:21;28.30;99.90
3919;DHT22;1974;48.670;8.994;2023-08-12T08:45:49;28.30;99.90
3919;DHT22;1974;48.670;8.994;2023-08-12T08:48:16;28.40;99.90
3919;DHT22;1974;48.670;8.994;2023-08-12T08:50:45;28.30;99.90
3919;DHT22;1974;48.670;8.994;2023-08-12T08:53:13;28.20;99.90
3919;DHT22;1974;48.670;8.994;2023-08-12T08:55:41;28.20;99.90
3919;DHT22;1974;48.670;8.994;2023-08-12T08:58:08;28.20;99.90
3919;DHT22;1974;48.670;8.994;2023-08-12T09:00:35;28.40;99.90
3919;DHT22;1974;48.670;8.994;2023-08-12T09:03:03;28.40;99.90
3919;DHT22;1974;48.670;8.994;2023-08-12T09:05:32;28.70;99.90
3919;DHT22;1974;48.670;8.994;2023-08-12T09:08:02;28.80;99.90
3919;DHT22;1974;48.670;8.994;2023-08-12T09:10:33;28.70;99.90
3919;DHT22;1974;48.670;8.994;2023-08-12T09:13:01;28.70;99.90
3919;DHT22;1974;48.670;8.994;2023-08-12T09:15:28;28.50;99.90
3919;DHT22;1974;48.670;8.994;2023-08-12T09:17:55;28.30;99.90
3919;DHT22;1974;48.670;8.994;2023-08-12T09:20:22;28.30;99.90
3919;DHT22;1974;48.670;8.994;2023-08-12T09:22:56;28.40;99.90
3919;DHT22;1974;48.670;8.994;2023-08-12T09:25:25;28.60;99.90
3919;DHT22;1974;48.670;8.994;2023-08-12T09:27:54;28.80;99.90
3919;DHT22;1974;48.670;8.994;2023-08-12T09:30:21;28.80;99.90
3919;DHT22;1974;48.670;8.994;2023-08-12T09:32:58;28.80;99.90
3919;DHT22;1974;48.670;8.994;2023-08-12T09:35:32;28.90;99.90
3919;DHT22;1974;48.670;8.994;2023-08-12T09:38:01;28.70;99.90
3919;DHT22;1974;48.670;8.994;2023-08-12T09:40:30;28.60;99.90
3919;DHT22;1974;48.670;8.994;2023-08-12T09:42:57;28.50;99.90
3919;DHT22;1974;48.670;8.994;2023-08-12T09:45:24;28.30;99.90
3919;DHT22;1974;48.670;8.994;2023-08-12T09:47:51;28.10;99.90
3919;DHT22;1974;48.670;8.994;2023-08-12T09:50:21;27.80;99.90
3919;DHT22;1974;48.670;8.994;2023-08-12T09:52:48;27.60;99.90
3919;DHT22;1974;48.670;8.994;2023-08-12T09:55:16;27.60;99.90
3919;DHT22;1974;48.670;8.994;2023-08-12T09:57:47;27.50;99.90
3919;DHT22;1974;48.670;8.994;2023-08-12T10:00:15;27.30;99.90
3919;DHT22;1974;48.670;8.994;2023-08-12T10:02:44;27.20;99.90
3919;DHT22;1974;48.670;8.994;2023-08-12T10:05:18;27.10;99.90
3919;DHT22;1974;48.670;8.994;2023-08-12T10:07:45;27.10;99.90
3919;DHT22;1974;48.670;8.994;2023-08-12T10:10:14;27.10;99.90
3919;DHT22;1974;48.670;8.994;2023-08-12T10:12:41;27.10;99.90
3919;DHT22;1974;48.670;8.994;2023-08-12T10:15:10;27.20;99.90
3919;DHT22;1974;48.670;8.994;2023-08-12T10:17:38;27.30;99.90
3919;DHT22;1974;48.670;8.994;2023-08-12T10:20:06;27.50;99.90
3919;DHT22;1974;48.670;8.994;2023-08-12T10:22:35;27.60;99.90
3919;DHT22;1974;48.670;8.994;2023-08-12T10:25:03;27.60;99.90
3919;DHT22;1974;48.670;8.994;2023-08-12T10:27:30;27.80;99.90
3919;DHT22;1974;48.670;8.994;2023-08-12T10:29:57;28.00;99.90
3919;DHT22;1974;48.670;8.994;2023-08-12T10:32:25;28.00;99.90
3919;DHT22;1974;48.670;8.994;2023-08-12T10:34:56;27.90;99.90
3919;DHT22;1974;48.670;8.994;2023-08-12T10:37:24;27.80;99.90
3919;DHT22;1974;48.670;8.994;2023-08-12T10:39:52;27.70;99.90
3919;DHT22;1974;48.670;8.994;2023-08-12T10:42:39;27.80;99.90
3919;DHT22;1974;48.670;8.994;2023-08-12T10:45:07;28.00;99.90
3919;DHT22;1974;48.670;8.994;2023-08-12T10:47:40;28.20;99.90
3919;DHT22;1974;48.670;8.994;2023-08-12T10:50:17;28.50;99.90
3919;DHT22;1974;48.670;8.994;2023-08-12T10:52:45;28.60;99.90
3919;DHT22;1974;48.670;8.994;2023-08-12T10:55:22;28.70;99.90
3919;DHT22;1974;48.670;8.994;2023-08-12T10:57:51;28.80;99.90
3919;DHT22;1974;48.670;8.994;2023-08-12T11:00:19;28.70;99.90
3919;DHT22;1974;48.670;8.994;2023-08-12T11:02:50;28.70;99.90
3919;DHT22;1974;48.670;8.994;2023-08-12T11:05:18;28.80;99.90
3919;DHT22;1974;48.670;8.994;2023-08-12T11:07:47;28.90;99.90
3919;DHT22;1974;48.670;8.994;2023-08-12T11:10:15;29.20;99.90
3919;DHT22;1974;48.670;8.994;2023-08-12T11:12:47;29.30;99.90
3919;DHT22;1974;48.670;8.994;2023-08-12T11:15:14;29.20;99.90
3919;DHT22;1974;48.670;8.994;2023-08-12T11:17:41;29.00;99.90
3919;DHT22;1974;48.670;8.994;2023-08-12T11:20:11;28.90;99.90
3919;DHT22;1974;48.670;8.994;2023-08-12T11:22:39;28.80;99.90
3919;DHT22;1974;48.670;8.994;2023-08-12T11:25:07;28.70;99.90
3919;DHT22;1974;48.670;8.994;2023-08-12T11:27:41;28.60;99.90
3919;DHT22;1974;48.670;8.994;2023-08-12T11:30:09;28.60;99.90
3919;DHT22;1974;48.670;8.994;2023-08-12T11:32:37;28.60;99.90
3919;DHT22;1974;48.670;8.994;2023-08-12T11:35:06;28.60;99.90
3919;DHT22;1974;48.670;8.994;2023-08-12T11:37:35;28.50;99.90
3919;DHT22;1974;48.670;8.994;2023-08-12T11:40:02;28.50;99.90
3919;DHT22;1974;48.670;8.994;2023-08-12T11:42:29;28.40;99.90
3919;DHT22;1974;48.670;8.994;2023-08-12T11:44:57;28.40;99.90
3919;DHT22;1974;48.670;8.994;2023-08-12T11:47:24;28.50;99.90
3919;DHT22;1974;48.670;8.994;2023-08-12T11:49:52;28.60;99.90
3919;DHT22;1974;48.670;8.994;2023-08-12T11:52:20;28.50;99.90
3919;DHT22;1974;48.670;8.994;2023-08-12T11:54:49;28.50;99.90
3919;DHT22;1974;48.670;8.994;2023-08-12T11:57:16;28.30;99.90
3919;DHT22;1974;48.670;8.994;2023-08-12T11:59:43;28.20;99.90
3919;DHT22;1974;48.670;8.994;2023-08-12T12:02:10;28.10;99.90
3919;DHT22;1974;48.670;8.994;2023-08-12T12:04:38;28.00;99.90
3919;DHT22;1974;48.670;8.994;2023-08-12T12:07:17;27.90;99.90
3919;DHT22;1974;48.670;8.994;2023-08-12T12:09:44;27.80;99.90
3919;DHT22;1974;48.670;8.994;2023-08-12T12:12:12;27.70;99.90
3919;DHT22;1974;48.670;8.994;2023-08-12T12:14:39;27.50;99.90
3919;DHT22;1974;48.670;8.994;2023-08-12T12:17:07;27.20;99.90
3919;DHT22;1974;48.670;8.994;2023-08-12T12:19:35;26.70;99.90
3919;DHT22;1974;48.670;8.994;2023-08-12T12:22:03;26.20;99.90
3919;DHT22;1974;48.670;8.994;2023-08-12T12:24:30;25.70;99.90
3919;DHT22;1974;48.670;8.994;2023-08-12T12:26:57;25.30;99.90
3919;DHT22;1974;48.670;8.994;2023-08-12T12:29:25;25.00;99.90
3919;DHT22;1974;48.670;8.994;2023-08-12T12:31:52;24.60;99.90
3919;DHT22;1974;48.670;8.994;2023-08-12T12:34:19;24.20;99.90
3919;DHT22;1974;48.670;8.994;2023-08-12T12:36:46;23.80;99.90
3919;DHT22;1974;48.670;8.994;2023-08-12T12:39:12;23.40;99.90
3919;DHT22;1974;48.670;8.994;2023-08-12T12:41:39;23.10;99.90
3919;DHT22;1974;48.670;8.994;2023-08-12T12:44:06;23.00;99.90
3919;DHT22;1974;48.670;8.994;2023-08-12T12:46:35;22.90;99.90
3919;DHT22;1974;48.670;8.994;2023-08-12T12:49:02;22.70;99.90
3919;DHT22;1974;48.670;8.994;2023-08-12T12:51:28;22.60;99.90
3919;DHT22;1974;48.670;8.994;2023-08-12T12:53:55;22.60;99.90
3919;DHT22;1974;48.670;8.994;2023-08-12T12:56:22;22.60;99.90
3919;DHT22;1974;48.670;8.994;2023-08-12T12:58:49;22.50;99.90
3919;DHT22;1974;48.670;8.994;2023-08-12T13:01:16;22.50;99.90
3919;DHT22;1974;48.670;8.994;2023-08-12T13:03:44;22.40;99.90
3919;DHT22;1974;48.670;8.994;2023-08-12T13:06:10;22.30;99.90
3919;DHT22;1974;48.670;8.994;2023-08-12T13:08:37;22.20;99.90
3919;DHT22;1974;48.670;8.994;2023-08-12T13:11:04;22.30;99.90
3919;DHT22;1974;48.670;8.994;2023-08-12T13:13:31;22.30;99.90
3919;DHT22;1974;48.670;8.994;2023-08-12T13:15:57;22.10;99.90
3919;DHT22;1974;48.670;8.994;2023-08-12T13:18:24;22.30;99.90
3919;DHT22;1974;48.670;8.994;2023-08-12T13:20:52;22.20;99.90
3919;DHT22;1974;48.670;8.994;2023-08-12T13:23:19;22.10;99.90
3919;DHT22;1974;48.670;8.994;2023-08-12T13:25:46;22.20;99.90
3919;DHT22;1974;48.670;8.994;2023-08-12T13:28:12;22.30;99.90
3919;DHT22;1974;48.670;8.994;2023-08-12T13:30:39;22.20;99.90
3919;DHT22;1974;48.670;8.994;2023-08-12T13:33:06;22.50;99.90
3919;DHT22;1974;48.670;8.994;2023-08-12T13:35:33;22.70;99.90
3919;DHT22;1974;48.670;8.994;2023-08-12T13:38:02;22.80;99.90
3919;DHT22;1974;48.670;8.994;2023-08-12T13:40:29;23.10;99.90
3919;DHT22;1974;48.670;8.994;2023-08-12T13:42:56;23.30;99.90
3919;DHT22;1974;48.670;8.994;2023-08-12T13:45:23;23.60;99.90
3919;DHT22;1974;48.670;8.994;2023-08-12T13:47:50;23.90;99.90
3919;DHT22;1974;48.670;8.994;2023-08-12T13:50:16;23.90;99.90
3919;DHT22;1974;48.670;8.994;2023-08-12T13:52:44;24.00;99.90
3919;DHT22;1974;48.670;8.994;2023-08-12T13:55:13;24.10;99.90
3919;DHT22;1974;48.670;8.994;2023-08-12T13:57:40;24.10;99.90
3919;DHT22;1974;48.670;8.994;2023-08-12T14:00:07;24.30;99.90
3919;DHT22;1974;48.670;8.994;2023-08-12T14:02:35;24.30;99.90
3919;DHT22;1974;48.670;8.994;2023-08-12T14:05:02;24.40;99.90
3919;DHT22;1974;48.670;8.994;2023-08-12T14:07:30;24.50;99.90
3919;DHT22;1974;48.670;8.994;2023-08-12T14:09:57;24.60;99.90
3919;DHT22;1974;48.670;8.994;2023-08-12T14:12:25;24.50;99.90
3919;DHT22;1974;48.670;8.994;2023-08-12T14:14:52;24.40;99.90
3919;DHT22;1974;48.670;8.994;2023-08-12T14:17:19;24.40;99.90
3919;DHT22;1974;48.670;8.994;2023-08-12T14:19:49;24.40;99.90
3919;DHT22;1974;48.670;8.994;2023-08-12T14:22:16;24.30;99.90
3919;DHT22;1974;48.670;8.994;2023-08-12T14:24:43;24.40;99.90
3919;DHT22;1974;48.670;8.994;2023-08-12T14:27:11;24.30;99.90
3919;DHT22;1974;48.670;8.994;2023-08-12T14:29:39;24.30;99.90
3919;DHT22;1974;48.670;8.994;2023-08-12T14:32:06;24.30;99.90
3919;DHT22;1974;48.670;8.994;2023-08-12T14:34:32;24.30;99.90
3919;DHT22;1974;48.670;8.994;2023-08-12T14:36:59;24.30;99.90
3919;DHT22;1974;48.670;8.994;2023-08-12T14:39:26;24.40;99.90
3919;DHT22;1974;48.670;8.994;2023-08-12T14:41:53;24.30;99.90
3919;DHT22;1974;48.670;8.994;2023-08-12T14:44:20;24.30;99.90
3919;DHT22;1974;48.670;8.994;2023-08-12T14:46:48;24.40;99.90
3919;DHT22;1974;48.670;8.994;2023-08-12T14:49:15;24.40;99.90
3919;DHT22;1974;48.670;8.994;2023-08-12T14:51:42;24.40;99.90
3919;DHT22;1974;48.670;8.994;2023-08-12T14:54:08;24.40;99.90
3919;DHT22;1974;48.670;8.994;2023-08-12T14:56:35;24.40;99.90
3919;DHT22;1974;48.670;8.994;2023-08-12T14:59:02;24.40;99.90
3919;DHT22;1974;48.670;8.994;2023-08-12T15:01:29;24.50;99.90
3919;DHT22;1974;48.670;8.994;2023-08-12T15:03:57;24.50;99.90
3919;DHT22;1974;48.670;8.994;2023-08-12T15:06:24;24.50;99.90
3919;DHT22;1974;48.670;8.994;2023-08-12T15:08:51;24.60;99.90
3919;DHT22;1974;48.670;8.994;2023-08-12T15:11:18;24.60;99.90
3919;DHT22;1974;48.670;8.994;2023-08-12T15:13:44;24.60;99.90
3919;DHT22;1974;48.670;8.994;2023-08-12T15:16:11;24.60;99.90
3919;DHT22;1974;48.670;8.994;2023-08-12T15:18:38;24.70;99.90
3919;DHT22;1974;48.670;8.994;2023-08-12T15:21:06;24.70;99.90
3919;DHT22;1974;48.670;8.994;2023-08-12T15:23:33;24.80;99.90
3919;DHT22;1974;48.670;8.994;2023-08-12T15:26:00;24.70;99.90
3919;DHT22;1974;48.670;8.994;2023-08-12T15:28:28;24.70;99.90
3919;DHT22;1974;48.670;8.994;2023-08-12T15:30:55;24.70;99.90
3919;DHT22;1974;48.670;8.994;2023-08-12T15:33:21;24.70;99.90
3919;DHT22;1974;48.670;8.994;2023-08-12T15:35:48;24.70;99.90
3919;DHT22;1974;48.670;8.994;2023-08-12T15:38:16;24.70;99.90
3919;DHT22;1974;48.670;8.994;2023-08-12T15:40:43;24.70;99.90
3919;DHT22;1974;48.670;8.994;2023-08-12T15:43:10;24.70;99.90
3919;DHT22;1974;48.670;8.994;2023-08-12T15:45:36;24.70;99.90
3919;DHT22;1974;48.670;8.994;2023-08-12T15:48:05;24.70;99.90
3919;DHT22;1974;48.670;8.994;2023-08-12T15:50:32;24.70;99.90
3919;DHT22;1974;48.670;8.994;2023-08-12T15:52:59;24.70;99.90
3919;DHT22;1974;48.670;8.994;2023-08-12T15:55:27;24.80;99.90
3919;DHT22;1974;48.670;8.994;2023-08-12T15:57:54;24.70;99.90
3919;DHT22;1974;48.670;8.994;2023-08-12T16:00:21;24.70;99.90
3919;DHT22;1974;48.670;8.994;2023-08-12T16:02:48;24.70;99.90